createdAt,value
2023-02-06T00:00:54.914Z,0.00
2023-02-06T00:01:54.939Z,0.00
2023-02-06T00:02:54.897Z,0.00
2023-02-06T00:03:54.934Z,0.00
2023-02-06T00:04:54.914Z,0.00
2023-02-06T00:05:54.886Z,0.00
2023-02-06T00:06:54.853Z,0.00
2023-02-06T00:07:54.891Z,0.00
2023-02-06T00:08:54.892Z,0.00
2023-02-06T00:09:54.874Z,0.00
2023-02-06T00:10:54.832Z,0.00
2023-02-06T00:11:54.849Z,0.00
2023-02-06T00:12:54.788Z,0.00
2023-02-06T00:13:54.844Z,0.00
2023-02-06T00:14:54.948Z,0.00
2023-02-06T00:15:54.801Z,0.00
2023-02-06T00:16:59.797Z,0.00
2023-02-06T00:17:54.771Z,0.00
2023-02-06T00:18:54.813Z,0.00
2023-02-06T00:19:54.780Z,0.00
2023-02-06T00:20:54.808Z,0.00
2023-02-06T00:21:54.705Z,0.00
2023-02-06T00:22:54.694Z,0.00
2023-02-06T00:23:54.724Z,0.00
2023-02-06T00:24:54.661Z,0.00
2023-02-06T00:25:54.723Z,0.00
2023-02-06T00:26:55.139Z,0.00
2023-02-06T00:27:54.657Z,0.00
2023-02-06T00:28:54.630Z,0.00
2023-02-06T00:29:54.661Z,0.00
2023-02-06T00:30:54.772Z,0.00
2023-02-06T00:31:54.630Z,0.00
2023-02-06T00:32:54.585Z,0.00
2023-02-06T00:33:54.646Z,0.00
2023-02-06T00:34:54.577Z,0.00
2023-02-06T00:35:54.599Z,0.00
2023-02-06T00:36:54.688Z,0.00
2023-02-06T00:37:54.533Z,0.00
2023-02-06T00:38:54.520Z,0.00
2023-02-06T00:39:54.537Z,0.00
2023-02-06T00:40:54.553Z,0.00
2023-02-06T00:41:54.503Z,0.00
2023-02-06T00:42:54.520Z,0.00
2023-02-06T00:43:54.521Z,0.00
2023-02-06T00:44:54.456Z,0.00
2023-02-06T00:45:54.457Z,0.00
2023-02-06T00:46:54.553Z,0.00
2023-02-06T00:47:54.653Z,0.00
2023-02-06T00:48:54.437Z,0.00
2023-02-06T00:49:54.414Z,0.00
2023-02-06T00:50:54.395Z,0.00
2023-02-06T00:51:54.386Z,0.00
2023-02-06T00:52:54.411Z,0.00
2023-02-06T00:53:54.375Z,0.00
2023-02-06T00:54:54.392Z,0.00
2023-02-06T00:55:54.396Z,0.00
2023-02-06T00:56:54.373Z,0.00
2023-02-06T00:57:54.360Z,0.00
2023-02-06T00:58:54.360Z,0.00
2023-02-06T00:59:54.324Z,0.00
2023-02-06T01:00:54.292Z,0.00
2023-02-06T01:01:54.372Z,0.00
2023-02-06T01:02:54.306Z,0.00
2023-02-06T01:03:54.293Z,0.00
2023-02-06T01:04:54.350Z,0.00
2023-02-06T01:05:54.249Z,0.00
2023-02-06T01:06:54.223Z,0.00
2023-02-06T01:07:54.307Z,0.00
2023-02-06T01:08:54.201Z,0.00
2023-02-06T01:09:54.219Z,0.00
2023-02-06T01:10:54.212Z,0.00
2023-02-06T01:11:54.230Z,0.00
2023-02-06T01:12:54.158Z,0.00
2023-02-06T01:13:54.160Z,0.00
2023-02-06T01:14:54.203Z,0.00
2023-02-06T01:15:54.202Z,0.00
2023-02-06T01:17:15.188Z,0.00
2023-02-06T01:17:54.127Z,0.00
2023-02-06T01:18:54.144Z,0.00
2023-02-06T01:19:54.133Z,0.00
2023-02-06T01:20:54.119Z,0.00
2023-02-06T01:21:54.060Z,0.00
2023-02-06T01:22:54.057Z,0.00
2023-02-06T01:23:54.073Z,0.00
2023-02-06T01:24:54.041Z,0.00
2023-02-06T01:25:54.032Z,0.00
2023-02-06T01:26:54.047Z,0.00
2023-02-06T01:27:54.068Z,0.00
2023-02-06T01:28:53.988Z,0.00
2023-02-06T01:29:53.990Z,0.00
2023-02-06T01:30:53.983Z,0.00
2023-02-06T01:31:53.999Z,0.00
2023-02-06T01:32:53.961Z,0.00
2023-02-06T01:33:53.944Z,0.00
2023-02-06T01:34:53.932Z,0.00
2023-02-06T01:35:53.929Z,0.00
2023-02-06T01:36:53.965Z,0.00
2023-02-06T01:37:53.937Z,0.00
2023-02-06T01:38:53.970Z,0.00
2023-02-06T01:39:53.913Z,0.00
2023-02-06T01:40:53.862Z,0.00
2023-02-06T01:41:53.847Z,0.00
2023-02-06T01:42:53.867Z,0.00
2023-02-06T01:43:53.857Z,0.00
2023-02-06T01:44:53.835Z,0.00
2023-02-06T01:45:53.817Z,0.00
2023-02-06T01:46:53.853Z,0.00
2023-02-06T01:47:53.804Z,0.00
2023-02-06T01:48:53.782Z,0.00
2023-02-06T01:49:53.812Z,0.00
2023-02-06T01:50:53.792Z,0.00
2023-02-06T01:51:53.758Z,0.00
2023-02-06T01:52:53.741Z,0.00
2023-02-06T01:53:53.751Z,0.00
2023-02-06T01:54:53.723Z,0.00
2023-02-06T01:55:53.766Z,0.00
2023-02-06T01:56:53.706Z,0.00
2023-02-06T01:57:53.693Z,0.00
2023-02-06T01:58:53.695Z,0.00
2023-02-06T01:59:53.730Z,0.00
2023-02-06T02:00:53.742Z,0.00
2023-02-06T02:01:53.680Z,0.00
2023-02-06T02:02:53.632Z,0.00
2023-02-06T02:03:54.153Z,0.00
2023-02-06T02:04:53.621Z,0.00
2023-02-06T02:05:53.618Z,0.00
2023-02-06T02:06:53.586Z,0.00
2023-02-06T02:07:53.658Z,0.00
2023-02-06T02:08:53.579Z,0.00
2023-02-06T02:09:53.643Z,0.00
2023-02-06T02:10:53.577Z,0.00
2023-02-06T02:11:53.645Z,0.00
2023-02-06T02:12:53.532Z,0.00
2023-02-06T02:13:53.581Z,0.00
2023-02-06T02:14:53.579Z,0.00
2023-02-06T02:15:53.535Z,0.00
2023-02-06T02:16:53.599Z,0.00
2023-02-06T02:17:53.488Z,0.00
2023-02-06T02:18:53.518Z,0.00
2023-02-06T02:19:53.458Z,0.00
2023-02-06T02:20:53.446Z,0.00
2023-02-06T02:21:53.550Z,0.00
2023-02-06T02:22:53.533Z,0.00
2023-02-06T02:23:53.619Z,0.00
2023-02-06T02:24:53.459Z,0.00
2023-02-06T02:25:53.403Z,0.00
2023-02-06T02:26:53.424Z,0.00
2023-02-06T02:27:53.414Z,0.00
2023-02-06T02:28:53.371Z,0.00
2023-02-06T02:29:53.478Z,0.00
2023-02-06T02:30:53.391Z,0.00
2023-02-06T02:31:53.406Z,0.00
2023-02-06T02:32:53.327Z,0.00
2023-02-06T02:33:53.350Z,0.00
2023-02-06T02:34:53.409Z,0.00
2023-02-06T02:35:53.329Z,0.00
2023-02-06T02:36:53.362Z,0.00
2023-02-06T02:37:53.271Z,0.00
2023-02-06T02:38:53.261Z,0.00
2023-02-06T02:39:53.308Z,0.00
2023-02-06T02:40:53.252Z,0.00
2023-02-06T02:41:53.250Z,0.00
2023-02-06T02:42:53.350Z,0.00
2023-02-06T02:43:53.239Z,0.00
2023-02-06T02:44:53.300Z,0.00
2023-02-06T02:45:53.301Z,0.00
2023-02-06T02:47:00.684Z,0.00
2023-02-06T02:47:53.210Z,0.00
2023-02-06T02:48:53.165Z,0.00
2023-02-06T02:49:53.153Z,0.00
2023-02-06T02:50:53.221Z,0.00
2023-02-06T02:51:53.122Z,0.00
2023-02-06T02:52:53.124Z,0.00
2023-02-06T02:53:53.228Z,0.00
2023-02-06T02:54:53.212Z,0.00
2023-02-06T02:55:53.098Z,0.00
2023-02-06T02:56:53.087Z,0.00
2023-02-06T02:57:53.097Z,0.00
2023-02-06T02:58:53.087Z,0.00
2023-02-06T02:59:53.107Z,0.00
2023-02-06T03:00:53.181Z,0.00
2023-02-06T03:01:53.188Z,0.00
2023-02-06T03:02:53.048Z,0.00
2023-02-06T03:03:53.003Z,0.00
2023-02-06T03:04:53.000Z,0.00
2023-02-06T03:05:52.999Z,0.00
2023-02-06T03:06:52.969Z,0.00
2023-02-06T03:07:53.001Z,0.00
2023-02-06T03:08:52.954Z,0.00
2023-02-06T03:09:52.931Z,0.00
2023-02-06T03:10:52.926Z,0.00
2023-02-06T03:11:52.972Z,0.00
2023-02-06T03:12:52.911Z,0.00
2023-02-06T03:13:52.932Z,0.00
2023-02-06T03:14:52.927Z,0.00
2023-02-06T03:15:52.905Z,0.00
2023-02-06T03:16:52.868Z,0.00
2023-02-06T03:17:52.866Z,0.00
2023-02-06T03:18:52.863Z,0.00
2023-02-06T03:19:52.859Z,0.00
2023-02-06T03:20:52.895Z,0.00
2023-02-06T03:21:52.843Z,0.00
2023-02-06T03:22:52.819Z,0.00
2023-02-06T03:23:52.796Z,0.00
2023-02-06T03:24:52.791Z,0.00
2023-02-06T03:25:52.780Z,0.00
2023-02-06T03:26:52.804Z,0.00
2023-02-06T03:27:52.805Z,0.00
2023-02-06T03:28:52.748Z,0.00
2023-02-06T03:29:52.731Z,0.00
2023-02-06T03:30:52.729Z,0.00
2023-02-06T03:31:52.803Z,0.00
2023-02-06T03:32:52.724Z,0.00
2023-02-06T03:33:53.636Z,0.00
2023-02-06T03:34:52.850Z,0.00
2023-02-06T03:35:52.714Z,0.00
2023-02-06T03:36:52.672Z,0.00
2023-02-06T03:37:52.766Z,0.00
2023-02-06T03:38:52.718Z,0.00
2023-02-06T03:39:52.633Z,0.00
2023-02-06T03:40:52.622Z,0.00
2023-02-06T03:41:52.670Z,0.00
2023-02-06T03:42:52.594Z,0.00
2023-02-06T03:43:53.173Z,0.00
2023-02-06T03:44:52.641Z,0.00
2023-02-06T03:45:52.680Z,0.00
2023-02-06T03:46:52.573Z,0.00
2023-02-06T03:47:52.581Z,0.00
2023-02-06T03:48:52.545Z,0.00
2023-02-06T03:49:52.529Z,0.00
2023-02-06T03:50:52.552Z,0.00
2023-02-06T03:51:52.645Z,0.00
2023-02-06T03:53:00.020Z,0.00
2023-02-06T03:53:52.487Z,0.00
2023-02-06T03:54:52.529Z,0.00
2023-02-06T03:55:52.489Z,0.00
2023-02-06T03:56:52.457Z,0.00
2023-02-06T03:57:52.461Z,0.00
2023-02-06T03:58:52.437Z,0.00
2023-02-06T03:59:52.442Z,0.00
2023-02-06T04:00:52.458Z,0.00
2023-02-06T04:01:52.414Z,0.00
2023-02-06T04:02:52.406Z,0.00
2023-02-06T04:03:52.388Z,0.00
2023-02-06T04:04:52.375Z,0.00
2023-02-06T04:05:52.388Z,0.00
2023-02-06T04:06:52.375Z,0.00
2023-02-06T04:07:52.376Z,0.00
2023-02-06T04:08:52.377Z,0.00
2023-02-06T04:09:52.348Z,0.00
2023-02-06T04:10:52.350Z,0.00
2023-02-06T04:11:52.316Z,0.00
2023-02-06T04:12:52.294Z,0.00
2023-02-06T04:13:52.315Z,0.00
2023-02-06T04:14:52.293Z,0.00
2023-02-06T04:15:52.275Z,0.00
2023-02-06T04:16:52.266Z,0.00
2023-02-06T04:18:00.184Z,0.00
2023-02-06T04:18:53.234Z,0.00
2023-02-06T04:19:52.225Z,0.00
2023-02-06T04:20:52.211Z,0.00
2023-02-06T04:21:52.217Z,0.00
2023-02-06T04:22:52.222Z,0.00
2023-02-06T04:23:52.209Z,0.00
2023-02-06T04:24:52.177Z,0.00
2023-02-06T04:25:52.169Z,0.00
2023-02-06T04:26:52.158Z,0.00
2023-02-06T04:27:52.193Z,0.00
2023-02-06T04:28:52.174Z,0.00
2023-02-06T04:29:52.135Z,0.00
2023-02-06T04:30:52.209Z,0.00
2023-02-06T04:31:52.112Z,0.00
2023-02-06T04:32:52.087Z,0.00
2023-02-06T04:33:52.113Z,0.00
2023-02-06T04:34:52.114Z,0.00
2023-02-06T04:35:52.078Z,0.00
2023-02-06T04:36:52.137Z,0.00
2023-02-06T04:37:52.048Z,0.00
2023-02-06T04:38:52.052Z,0.00
2023-02-06T04:39:52.045Z,0.00
2023-02-06T04:40:52.015Z,0.00
2023-02-06T04:41:52.031Z,0.00
2023-02-06T04:42:52.032Z,0.00
2023-02-06T04:43:52.050Z,0.00
2023-02-06T04:44:51.975Z,0.00
2023-02-06T04:45:52.274Z,0.00
2023-02-06T04:46:51.957Z,0.00
2023-02-06T04:47:51.952Z,0.00
2023-02-06T04:48:51.943Z,0.00
2023-02-06T04:49:51.936Z,0.00
2023-02-06T04:50:51.927Z,0.00
2023-02-06T04:51:51.976Z,0.00
2023-02-06T04:52:51.889Z,0.00
2023-02-06T04:53:51.955Z,0.00
2023-02-06T04:54:51.969Z,0.00
2023-02-06T04:55:51.862Z,0.00
2023-02-06T04:56:51.879Z,0.00
2023-02-06T04:57:51.846Z,0.00
2023-02-06T04:58:51.825Z,0.00
2023-02-06T04:59:51.820Z,0.00
2023-02-06T05:00:51.833Z,0.00
2023-02-06T05:01:51.805Z,0.00
2023-02-06T05:02:51.835Z,0.00
2023-02-06T05:03:51.785Z,0.00
2023-02-06T05:04:51.772Z,0.00
2023-02-06T05:05:51.762Z,0.00
2023-02-06T05:06:51.791Z,0.00
2023-02-06T05:07:51.756Z,0.00
2023-02-06T05:08:51.785Z,0.00
2023-02-06T05:09:51.717Z,0.00
2023-02-06T05:10:51.783Z,0.00
2023-02-06T05:11:51.705Z,0.00
2023-02-06T05:12:51.748Z,0.00
2023-02-06T05:13:51.684Z,0.00
2023-02-06T05:14:51.674Z,0.00
2023-02-06T05:15:51.725Z,0.00
2023-02-06T05:17:02.174Z,0.00
2023-02-06T05:17:51.725Z,0.00
2023-02-06T05:18:51.684Z,0.00
2023-02-06T05:19:51.651Z,0.00
2023-02-06T05:20:51.650Z,0.00
2023-02-06T05:21:51.609Z,0.00
2023-02-06T05:22:51.601Z,0.00
2023-02-06T05:23:51.570Z,0.00
2023-02-06T05:24:51.710Z,0.00
2023-02-06T05:25:51.658Z,0.00
2023-02-06T05:26:51.566Z,0.00
2023-02-06T05:27:51.588Z,0.00
2023-02-06T05:28:51.530Z,0.00
2023-02-06T05:29:51.546Z,0.00
2023-02-06T05:30:51.542Z,0.00
2023-02-06T05:31:51.552Z,0.00
2023-02-06T05:32:51.485Z,0.00
2023-02-06T05:33:52.558Z,0.00
2023-02-06T05:34:51.457Z,0.00
2023-02-06T05:35:51.454Z,0.00
2023-02-06T05:36:51.467Z,0.00
2023-02-06T05:37:51.439Z,0.00
2023-02-06T05:38:51.419Z,0.00
2023-02-06T05:39:51.450Z,0.00
2023-02-06T05:40:51.404Z,0.00
2023-02-06T05:41:51.412Z,0.00
2023-02-06T05:42:51.429Z,0.00
2023-02-06T05:43:51.365Z,0.00
2023-02-06T05:44:51.394Z,0.00
2023-02-06T05:45:51.353Z,0.00
2023-02-06T05:46:51.354Z,0.00
2023-02-06T05:47:51.331Z,0.00
2023-02-06T05:48:51.329Z,0.00
2023-02-06T05:49:51.316Z,0.00
2023-02-06T05:50:51.342Z,0.00
2023-02-06T05:51:51.295Z,0.00
2023-02-06T05:52:51.285Z,0.00
2023-02-06T05:53:51.283Z,0.00
2023-02-06T05:54:51.268Z,0.00
2023-02-06T05:55:51.272Z,0.00
2023-02-06T05:56:51.265Z,0.00
2023-02-06T05:57:51.246Z,0.00
2023-02-06T05:58:51.280Z,0.00
2023-02-06T05:59:51.312Z,0.00
2023-02-06T06:00:51.203Z,0.00
2023-02-06T06:01:51.210Z,0.00
2023-02-06T06:02:51.213Z,0.00
2023-02-06T06:03:51.228Z,0.00
2023-02-06T06:04:51.318Z,0.00
2023-02-06T06:05:51.180Z,0.00
2023-02-06T06:06:51.143Z,0.00
2023-02-06T06:07:51.149Z,0.00
2023-02-06T06:08:51.158Z,0.00
2023-02-06T06:09:51.135Z,0.00
2023-02-06T06:10:51.132Z,0.00
2023-02-06T06:11:51.099Z,0.00
2023-02-06T06:12:51.103Z,0.00
2023-02-06T06:13:51.079Z,0.00
2023-02-06T06:14:51.084Z,0.00
2023-02-06T06:15:51.103Z,0.00
2023-02-06T06:16:51.089Z,0.00
2023-02-06T06:17:51.058Z,0.00
2023-02-06T06:18:51.028Z,0.00
2023-02-06T06:19:51.020Z,0.00
2023-02-06T06:20:51.002Z,0.00
2023-02-06T06:21:51.048Z,0.00
2023-02-06T06:22:50.990Z,0.00
2023-02-06T06:23:51.014Z,0.00
2023-02-06T06:24:50.970Z,0.00
2023-02-06T06:25:50.952Z,0.00
2023-02-06T06:26:50.938Z,0.00
2023-02-06T06:27:51.082Z,0.00
2023-02-06T06:28:50.931Z,5.62
2023-02-06T06:29:50.969Z,5.62
2023-02-06T06:30:51.010Z,5.62
2023-02-06T06:31:50.926Z,5.62
2023-02-06T06:32:50.890Z,5.62
2023-02-06T06:33:50.902Z,5.62
2023-02-06T06:34:50.878Z,5.62
2023-02-06T06:35:50.884Z,11.25
2023-02-06T06:36:50.858Z,11.25
2023-02-06T06:37:50.891Z,11.25
2023-02-06T06:38:50.833Z,11.25
2023-02-06T06:39:50.817Z,16.88
2023-02-06T06:40:50.831Z,16.88
2023-02-06T06:41:50.801Z,16.88
2023-02-06T06:42:50.792Z,16.88
2023-02-06T06:43:51.659Z,22.50
2023-02-06T06:44:50.761Z,22.50
2023-02-06T06:45:50.771Z,22.50
2023-02-06T06:46:50.789Z,28.12
2023-02-06T06:47:50.757Z,28.12
2023-02-06T06:48:50.762Z,28.12
2023-02-06T06:49:50.752Z,33.75
2023-02-06T06:50:50.741Z,33.75
2023-02-06T06:51:50.704Z,39.38
2023-02-06T06:52:50.703Z,39.38
2023-02-06T06:53:50.714Z,45.00
2023-02-06T06:54:52.332Z,45.00
2023-02-06T06:55:50.659Z,50.62
2023-02-06T06:56:50.641Z,56.25
2023-02-06T06:57:50.639Z,56.25
2023-02-06T06:58:50.661Z,61.88
2023-02-06T06:59:50.635Z,61.88
2023-02-06T07:00:50.661Z,67.50
2023-02-06T07:01:50.604Z,73.12
2023-02-06T07:02:50.790Z,67.50
2023-02-06T07:03:50.573Z,73.12
2023-02-06T07:04:50.618Z,78.75
2023-02-06T07:05:52.976Z,78.75
2023-02-06T07:06:50.576Z,84.38
2023-02-06T07:07:50.536Z,90.00
2023-02-06T07:08:50.517Z,84.38
2023-02-06T07:09:50.548Z,90.00
2023-02-06T07:10:50.502Z,95.62
2023-02-06T07:11:50.524Z,95.62
2023-02-06T07:12:50.489Z,101.25
2023-02-06T07:13:50.476Z,106.88
2023-02-06T07:14:50.491Z,118.12
2023-02-06T07:15:50.458Z,123.75
2023-02-06T07:16:50.463Z,129.38
2023-02-06T07:17:50.430Z,135.00
2023-02-06T07:18:50.551Z,140.62
2023-02-06T07:19:50.410Z,146.25
2023-02-06T07:20:50.401Z,151.88
2023-02-06T07:21:50.402Z,163.12
2023-02-06T07:22:50.387Z,174.38
2023-02-06T07:23:50.408Z,185.62
2023-02-06T07:24:53.467Z,196.88
2023-02-06T07:25:51.251Z,208.12
2023-02-06T07:26:50.351Z,208.12
2023-02-06T07:27:50.358Z,208.12
2023-02-06T07:28:50.329Z,208.12
2023-02-06T07:29:50.427Z,208.12
2023-02-06T07:30:50.415Z,213.75
2023-02-06T07:31:50.330Z,213.75
2023-02-06T07:32:50.338Z,213.75
2023-02-06T07:33:50.269Z,219.38
2023-02-06T07:34:50.344Z,225.00
2023-02-06T07:35:50.245Z,225.00
2023-02-06T07:36:50.245Z,230.62
2023-02-06T07:37:50.266Z,241.88
2023-02-06T07:38:50.223Z,247.50
2023-02-06T07:39:51.185Z,253.12
2023-02-06T07:40:50.244Z,258.75
2023-02-06T07:41:50.191Z,258.75
2023-02-06T07:42:50.191Z,258.75
2023-02-06T07:43:50.201Z,258.75
2023-02-06T07:44:50.250Z,264.38
2023-02-06T07:45:50.196Z,258.75
2023-02-06T07:46:50.173Z,264.38
2023-02-06T07:47:50.193Z,275.62
2023-02-06T07:48:50.141Z,286.88
2023-02-06T07:49:50.139Z,281.25
2023-02-06T07:50:50.171Z,286.88
2023-02-06T07:51:50.121Z,286.88
2023-02-06T07:52:50.172Z,286.88
2023-02-06T07:53:50.090Z,292.50
2023-02-06T07:54:50.062Z,331.88
2023-02-06T07:55:50.060Z,360.00
2023-02-06T07:56:50.042Z,376.88
2023-02-06T07:57:50.043Z,365.62
2023-02-06T07:58:50.073Z,376.88
2023-02-06T07:59:50.011Z,393.75
2023-02-06T08:00:50.068Z,382.50
2023-02-06T08:01:49.997Z,393.75
2023-02-06T08:02:49.994Z,405.00
2023-02-06T08:03:49.988Z,399.38
2023-02-06T08:04:49.955Z,376.88
2023-02-06T08:05:49.943Z,388.12
2023-02-06T08:06:50.023Z,371.25
2023-02-06T08:07:49.918Z,354.38
2023-02-06T08:08:49.940Z,326.25
2023-02-06T08:09:49.958Z,281.25
2023-02-06T08:10:49.926Z,270.00
2023-02-06T08:11:49.906Z,264.38
2023-02-06T08:12:49.916Z,247.50
2023-02-06T08:13:49.897Z,247.50
2023-02-06T08:14:49.885Z,253.12
2023-02-06T08:15:49.838Z,258.75
2023-02-06T08:16:49.934Z,247.50
2023-02-06T08:17:50.015Z,236.25
2023-02-06T08:18:49.856Z,213.75
2023-02-06T08:19:49.822Z,202.50
2023-02-06T08:20:49.864Z,174.38
2023-02-06T08:21:49.935Z,168.75
2023-02-06T08:22:49.855Z,174.38
2023-02-06T08:23:49.760Z,168.75
2023-02-06T08:24:49.795Z,163.12
2023-02-06T08:25:49.756Z,157.50
2023-02-06T08:26:49.790Z,157.50
2023-02-06T08:27:49.728Z,157.50
2023-02-06T08:28:49.761Z,163.12
2023-02-06T08:29:49.772Z,168.75
2023-02-06T08:30:49.824Z,168.75
2023-02-06T08:31:49.781Z,174.38
2023-02-06T08:32:49.666Z,196.88
2023-02-06T08:33:49.701Z,196.88
2023-02-06T08:34:49.649Z,174.38
2023-02-06T08:35:49.633Z,163.12
2023-02-06T08:36:49.701Z,163.12
2023-02-06T08:37:49.625Z,168.75
2023-02-06T08:38:49.669Z,157.50
2023-02-06T08:39:49.588Z,157.50
2023-02-06T08:40:49.626Z,157.50
2023-02-06T08:41:49.639Z,151.88
2023-02-06T08:42:49.587Z,146.25
2023-02-06T08:43:49.566Z,146.25
2023-02-06T08:44:49.644Z,157.50
2023-02-06T08:45:49.669Z,180.00
2023-02-06T08:46:52.338Z,163.12
2023-02-06T08:47:49.612Z,163.12
2023-02-06T08:48:49.528Z,163.12
2023-02-06T08:49:49.553Z,151.88
2023-02-06T08:50:49.502Z,174.38
2023-02-06T08:51:49.492Z,191.25
2023-02-06T08:52:49.625Z,208.12
2023-02-06T08:53:57.007Z,247.50
2023-02-06T08:54:49.517Z,225.00
2023-02-06T08:55:50.233Z,213.75
2023-02-06T08:56:49.486Z,236.25
2023-02-06T08:57:49.479Z,236.25
2023-02-06T08:58:49.517Z,230.62
2023-02-06T08:59:49.474Z,236.25
2023-02-06T09:00:49.421Z,236.25
2023-02-06T09:01:49.512Z,225.00
2023-02-06T09:02:49.528Z,225.00
2023-02-06T09:03:49.342Z,219.38
2023-02-06T09:04:49.344Z,213.75
2023-02-06T09:05:49.360Z,208.12
2023-02-06T09:06:49.349Z,202.50
2023-02-06T09:07:49.335Z,196.88
2023-02-06T09:08:49.328Z,196.88
2023-02-06T09:09:49.439Z,208.12
2023-02-06T09:10:49.289Z,236.25
2023-02-06T09:11:49.278Z,303.75
2023-02-06T09:12:49.254Z,405.00
2023-02-06T09:13:49.576Z,438.75
2023-02-06T09:14:49.224Z,376.88
2023-02-06T09:15:49.257Z,320.62
2023-02-06T09:16:53.716Z,315.00
2023-02-06T09:17:49.205Z,315.00
2023-02-06T09:18:49.232Z,315.00
2023-02-06T09:19:49.203Z,331.88
2023-02-06T09:20:49.289Z,348.75
2023-02-06T09:21:49.239Z,354.38
2023-02-06T09:22:49.188Z,320.62
2023-02-06T09:23:49.137Z,292.50
2023-02-06T09:24:49.135Z,275.62
2023-02-06T09:25:49.196Z,264.38
2023-02-06T09:27:04.018Z,253.12
2023-02-06T09:27:50.110Z,253.12
2023-02-06T09:28:49.164Z,247.50
2023-02-06T09:29:49.099Z,258.75
2023-02-06T09:30:49.247Z,286.88
2023-02-06T09:31:49.714Z,337.50
2023-02-06T09:32:49.028Z,388.12
2023-02-06T09:33:49.026Z,450.00
2023-02-06T09:34:49.341Z,489.38
2023-02-06T09:35:49.019Z,511.88
2023-02-06T09:36:48.989Z,523.12
2023-02-06T09:37:49.028Z,556.88
2023-02-06T09:38:48.982Z,590.62
2023-02-06T09:39:48.971Z,613.12
2023-02-06T09:40:48.958Z,624.38
2023-02-06T09:41:48.981Z,618.75
2023-02-06T09:42:49.019Z,624.38
2023-02-06T09:43:48.922Z,641.25
2023-02-06T09:44:48.917Z,658.12
2023-02-06T09:45:48.902Z,697.50
2023-02-06T09:46:48.896Z,720.00
2023-02-06T09:47:48.874Z,720.00
2023-02-06T09:48:48.938Z,748.12
2023-02-06T09:49:48.853Z,770.62
2023-02-06T09:50:48.852Z,866.25
2023-02-06T09:51:48.877Z,849.38
2023-02-06T09:52:48.876Z,815.62
2023-02-06T09:53:48.877Z,815.62
2023-02-06T09:54:48.830Z,793.12
2023-02-06T09:55:48.815Z,765.00
2023-02-06T09:56:48.780Z,742.50
2023-02-06T09:57:48.814Z,736.88
2023-02-06T09:58:48.862Z,731.25
2023-02-06T09:59:48.756Z,720.00
2023-02-06T10:00:48.732Z,703.12
2023-02-06T10:01:48.998Z,714.38
2023-02-06T10:02:48.729Z,708.75
2023-02-06T10:03:48.744Z,708.75
2023-02-06T10:04:48.710Z,731.25
2023-02-06T10:05:48.737Z,714.38
2023-02-06T10:06:48.685Z,680.62
2023-02-06T10:07:48.693Z,663.75
2023-02-06T10:08:48.706Z,652.50
2023-02-06T10:09:48.674Z,663.75
2023-02-06T10:10:48.631Z,680.62
2023-02-06T10:11:48.615Z,708.75
2023-02-06T10:12:48.740Z,736.88
2023-02-06T10:13:48.655Z,787.50
2023-02-06T10:14:48.599Z,793.12
2023-02-06T10:15:48.661Z,776.25
2023-02-06T10:16:59.226Z,765.00
2023-02-06T10:17:48.554Z,748.12
2023-02-06T10:18:48.589Z,714.38
2023-02-06T10:19:48.636Z,675.00
2023-02-06T10:20:48.538Z,658.12
2023-02-06T10:21:48.566Z,646.88
2023-02-06T10:22:48.546Z,652.50
2023-02-06T10:23:48.584Z,669.38
2023-02-06T10:24:48.484Z,680.62
2023-02-06T10:25:48.470Z,697.50
2023-02-06T10:26:48.483Z,691.88
2023-02-06T10:27:48.551Z,697.50
2023-02-06T10:28:48.571Z,703.12
2023-02-06T10:29:48.528Z,703.12
2023-02-06T10:30:48.501Z,697.50
2023-02-06T10:31:48.487Z,703.12
2023-02-06T10:32:48.440Z,708.75
2023-02-06T10:33:48.407Z,714.38
2023-02-06T10:34:48.489Z,714.38
2023-02-06T10:35:48.383Z,736.88
2023-02-06T10:36:48.388Z,770.62
2023-02-06T10:37:48.373Z,860.62
2023-02-06T10:38:48.371Z,1963.12
2023-02-06T10:39:48.469Z,1158.75
2023-02-06T10:40:48.327Z,995.62
2023-02-06T10:41:48.306Z,1063.12
2023-02-06T10:42:48.393Z,1023.75
2023-02-06T10:43:48.298Z,1265.62
2023-02-06T10:44:51.448Z,1203.75
2023-02-06T10:45:48.460Z,1096.88
2023-02-06T10:46:48.435Z,1434.38
2023-02-06T10:47:48.254Z,2930.62
2023-02-06T10:48:48.259Z,1428.75
2023-02-06T10:49:48.263Z,1451.25
2023-02-06T10:50:48.215Z,1805.62
2023-02-06T10:51:48.308Z,1620.00
2023-02-06T10:52:48.195Z,1490.62
2023-02-06T10:53:48.185Z,1620.00
2023-02-06T10:54:48.185Z,1552.50
2023-02-06T10:55:49.376Z,1355.62
2023-02-06T10:56:48.207Z,1051.88
2023-02-06T10:57:48.142Z,950.62
2023-02-06T10:58:48.170Z,978.75
2023-02-06T10:59:48.140Z,984.38
2023-02-06T11:00:48.136Z,950.62
2023-02-06T11:01:48.190Z,922.50
2023-02-06T11:02:55.303Z,933.75
2023-02-06T11:03:49.163Z,1057.50
2023-02-06T11:04:48.072Z,1546.88
2023-02-06T11:05:48.064Z,2570.62
2023-02-06T11:06:48.237Z,2086.88
2023-02-06T11:07:48.112Z,843.75
2023-02-06T11:08:48.029Z,641.25
2023-02-06T11:09:48.029Z,686.25
2023-02-06T11:10:48.101Z,804.38
2023-02-06T11:11:48.539Z,883.12
2023-02-06T11:12:48.004Z,860.62
2023-02-06T11:13:47.996Z,826.88
2023-02-06T11:14:48.022Z,781.88
2023-02-06T11:15:47.955Z,742.50
2023-02-06T11:16:47.960Z,725.62
2023-02-06T11:17:47.989Z,742.50
2023-02-06T11:18:47.950Z,821.25
2023-02-06T11:19:47.960Z,871.88
2023-02-06T11:20:47.920Z,1215.00
2023-02-06T11:21:47.998Z,1305.00
2023-02-06T11:22:52.965Z,855.00
2023-02-06T11:23:47.899Z,843.75
2023-02-06T11:24:47.872Z,855.00
2023-02-06T11:25:47.892Z,933.75
2023-02-06T11:26:47.889Z,1046.25
2023-02-06T11:27:47.865Z,1203.75
2023-02-06T11:28:47.835Z,826.88
2023-02-06T11:29:49.360Z,843.75
2023-02-06T11:30:47.798Z,798.75
2023-02-06T11:31:47.822Z,765.00
2023-02-06T11:33:02.697Z,697.50
2023-02-06T11:33:48.796Z,663.75
2023-02-06T11:34:47.805Z,613.12
2023-02-06T11:35:47.734Z,585.00
2023-02-06T11:36:47.761Z,556.88
2023-02-06T11:37:47.791Z,545.62
2023-02-06T11:38:47.704Z,540.00
2023-02-06T11:39:47.736Z,545.62
2023-02-06T11:40:47.682Z,551.25
2023-02-06T11:41:47.692Z,556.88
2023-02-06T11:42:47.658Z,568.12
2023-02-06T11:43:48.609Z,596.25
2023-02-06T11:44:47.640Z,624.38
2023-02-06T11:45:47.648Z,624.38
2023-02-06T11:46:47.642Z,613.12
2023-02-06T11:47:47.624Z,579.38
2023-02-06T11:48:47.604Z,534.38
2023-02-06T11:49:47.606Z,506.25
2023-02-06T11:50:47.624Z,478.12
2023-02-06T11:51:47.570Z,450.00
2023-02-06T11:52:47.568Z,416.25
2023-02-06T11:53:47.638Z,393.75
2023-02-06T11:54:47.553Z,376.88
2023-02-06T11:55:47.536Z,371.25
2023-02-06T11:56:47.581Z,382.50
2023-02-06T11:57:47.508Z,393.75
2023-02-06T11:58:47.511Z,405.00
2023-02-06T11:59:47.473Z,410.62
2023-02-06T12:00:47.474Z,433.12
2023-02-06T12:01:47.457Z,444.38
2023-02-06T12:02:47.473Z,466.88
2023-02-06T12:03:47.473Z,489.38
2023-02-06T12:04:47.470Z,495.00
2023-02-06T12:05:47.519Z,489.38
2023-02-06T12:06:47.406Z,472.50
2023-02-06T12:07:47.424Z,461.25
2023-02-06T12:08:47.383Z,466.88
2023-02-06T12:09:47.391Z,483.75
2023-02-06T12:10:47.392Z,511.88
2023-02-06T12:11:47.390Z,540.00
2023-02-06T12:12:47.376Z,556.88
2023-02-06T12:13:47.327Z,545.62
2023-02-06T12:14:47.338Z,540.00
2023-02-06T12:15:48.339Z,540.00
2023-02-06T12:16:52.383Z,568.12
2023-02-06T12:17:47.305Z,590.62
2023-02-06T12:18:47.316Z,573.75
2023-02-06T12:19:47.276Z,568.12
2023-02-06T12:20:47.260Z,579.38
2023-02-06T12:21:47.301Z,590.62
2023-02-06T12:22:47.232Z,601.88
2023-02-06T12:23:47.276Z,596.25
2023-02-06T12:24:47.288Z,624.38
2023-02-06T12:25:47.289Z,630.00
2023-02-06T12:26:47.230Z,618.75
2023-02-06T12:27:47.240Z,613.12
2023-02-06T12:28:47.248Z,601.88
2023-02-06T12:29:47.175Z,579.38
2023-02-06T12:30:47.220Z,551.25
2023-02-06T12:31:47.290Z,511.88
2023-02-06T12:32:47.161Z,483.75
2023-02-06T12:33:47.151Z,483.75
2023-02-06T12:34:47.106Z,517.50
2023-02-06T12:35:47.099Z,579.38
2023-02-06T12:36:47.089Z,635.62
2023-02-06T12:37:47.192Z,675.00
2023-02-06T12:38:47.098Z,697.50
2023-02-06T12:39:47.096Z,697.50
2023-02-06T12:40:47.046Z,686.25
2023-02-06T12:41:47.042Z,703.12
2023-02-06T12:42:47.011Z,725.62
2023-02-06T12:43:47.072Z,742.50
2023-02-06T12:44:47.081Z,708.75
2023-02-06T12:45:47.098Z,663.75
2023-02-06T12:46:47.060Z,675.00
2023-02-06T12:47:46.985Z,652.50
2023-02-06T12:48:47.259Z,663.75
2023-02-06T12:49:46.987Z,579.38
2023-02-06T12:50:46.976Z,495.00
2023-02-06T12:51:46.937Z,433.12
2023-02-06T12:52:46.938Z,382.50
2023-02-06T12:53:46.934Z,320.62